Time;durP1;ratioP1;P1;durP2;ratioP2;P2;SDS_P1;SDS_P2;PMS_P1;PMS_P2;Temp;Humidity;BMP_temperature;BMP_pressure;BME280_temperature;BME280_humidity;BME280_pressure;Samples;Min_cycle;Max_cycle;Signal;HPM_P1;HPM_P2
2022/04/02 00:00:29;;;;;;;0.70;0.70;;;;;;;;;;5057028;28;20649;-77
2022/04/02 00:02:55;;;;;;;0.70;0.70;;;;;;;;;;5060723;28;20204;-77
2022/04/02 00:05:27;;;;;;;1.38;1.27;;;;;;;;;;5073363;28;20185;-77
2022/04/02 00:07:56;;;;;;;0.60;0.60;;;;;;;;;;5076389;28;20303;-77
2022/04/02 00:10:25;;;;;;;0.70;0.70;;;;;;;;;;5058934;28;20208;-75
2022/04/02 00:12:54;;;;;;;0.80;0.80;;;;;;;;;;5069155;28;20193;-76
2022/04/02 00:15:21;;;;;;;0.70;0.70;;;;;;;;;;5063265;28;20204;-77
2022/04/02 00:17:48;;;;;;;0.80;0.80;;;;;;;;;;5076473;28;20185;-77
2022/04/02 00:20:17;;;;;;;0.70;0.60;;;;;;;;;;5076503;28;20192;-77
2022/04/02 00:25:30;;;;;;;0.80;0.80;;;;;;;;;;5072139;28;20279;-76
2022/04/02 00:27:57;;;;;;;1.15;1.05;;;;;;;;;;5057656;28;20212;-77
2022/04/02 00:30:24;;;;;;;1.35;1.25;;;;;;;;;;5056997;28;20607;-76
2022/04/02 00:32:51;;;;;;;0.70;0.70;;;;;;;;;;5043073;28;20193;-76
2022/04/02 00:35:18;;;;;;;0.70;0.70;;;;;;;;;;5070461;28;20662;-75
2022/04/02 00:37:46;;;;;;;0.60;0.60;;;;;;;;;;5054299;28;20241;-76
2022/04/02 00:40:14;;;;;;;0.70;0.70;;;;;;;;;;5054433;28;20201;-76
2022/04/02 00:42:45;;;;;;;0.70;0.70;;;;;;;;;;5061015;28;20193;-75
2022/04/02 00:45:13;;;;;;;0.70;0.70;;;;;;;;;;5071994;28;20201;-74
2022/04/02 00:47:42;;;;;;;0.60;0.60;;;;;;;;;;5073493;28;20677;-74
2022/04/02 00:50:16;;;;;;;0.70;0.70;;;;;;;;;;5075110;28;20188;-74
2022/04/02 00:52:49;;;;;;;0.77;0.77;;;;;;;;;;5065917;28;20311;-74
2022/04/02 00:55:19;;;;;;;0.65;0.60;;;;;;;;;;5070430;28;20597;-74
2022/04/02 00:57:50;;;;;;;0.70;0.60;;;;;;;;;;5070260;28;20194;-73
2022/04/02 01:00:21;;;;;;;0.60;0.60;;;;;;;;;;5036951;28;20658;-73
2022/04/02 01:02:49;;;;;;;0.70;0.65;;;;;;;;;;5083786;28;20185;-74
2022/04/02 01:05:17;;;;;;;0.70;0.70;;;;;;;;;;5066247;28;20198;-74
2022/04/02 01:07:46;;;;;;;0.88;0.88;;;;;;;;;;5044515;28;20220;-73
2022/04/02 01:10:15;;;;;;;0.70;0.60;;;;;;;;;;5062984;28;20263;-73
2022/04/02 01:12:46;;;;;;;0.68;0.68;;;;;;;;;;5066557;28;20197;-74
2022/04/02 01:15:19;;;;;;;0.70;0.70;;;;;;;;;;5052846;28;20268;-76
2022/04/02 01:17:52;;;;;;;0.70;0.70;;;;;;;;;;5062566;28;20203;-73
2022/04/02 01:20:29;;;;;;;0.60;0.60;;;;;;;;;;5071583;28;20207;-74
2022/04/02 01:23:00;;;;;;;0.70;0.70;;;;;;;;;;5064214;28;20284;-74
2022/04/02 01:25:36;;;;;;;0.70;0.70;;;;;;;;;;5052877;28;20661;-73
2022/04/02 01:28:15;;;;;;;0.60;0.60;;;;;;;;;;5053245;28;20230;-73
2022/04/02 01:30:47;;;;;;;0.80;0.80;;;;;;;;;;5053065;28;20197;-74
2022/04/02 01:33:17;;;;;;;0.70;0.70;;;;;;;;;;5071263;28;20194;-73
2022/04/02 01:35:57;;;;;;;0.77;0.77;;;;;;;;;;5069179;28;20250;-74
2022/04/02 01:38:28;;;;;;;0.70;0.60;;;;;;;;;;5066935;28;20198;-73
2022/04/02 01:41:02;;;;;;;0.70;0.60;;;;;;;;;;5052503;28;20296;-74
2022/04/02 01:43:36;;;;;;;0.60;0.60;;;;;;;;;;5063708;28;20202;-74
2022/04/02 01:46:05;;;;;;;0.70;0.70;;;;;;;;;;5063032;28;20212;-73
2022/04/02 01:48:34;;;;;;;1.15;1.15;;;;;;;;;;5071937;28;20216;-73
2022/04/02 01:51:05;;;;;;;0.65;0.63;;;;;;;;;;5072491;28;20232;-74
2022/04/02 01:53:34;;;;;;;0.60;0.50;;;;;;;;;;5069486;28;20189;-74
2022/04/02 01:56:07;;;;;;;0.68;0.60;;;;;;;;;;5071468;28;20199;-73
2022/04/02 01:58:38;;;;;;;0.70;0.70;;;;;;;;;;5056433;28;20192;-73
2022/04/02 02:01:09;;;;;;;0.60;0.52;;;;;;;;;;5072094;28;20193;-72
2022/04/02 02:03:36;;;;;;;0.88;0.88;;;;;;;;;;5061701;28;20212;-73
2022/04/02 02:06:04;;;;;;;0.60;0.60;;;;;;;;;;5072186;28;20216;-73
2022/04/02 02:08:31;;;;;;;0.70;0.70;;;;;;;;;;5058613;28;20190;-73
2022/04/02 02:11:03;;;;;;;0.70;0.70;;;;;;;;;;5064509;28;20197;-73
2022/04/02 02:13:43;;;;;;;0.65;0.65;;;;;;;;;;5069981;28;20238;-73
2022/04/02 02:16:14;;;;;;;0.60;0.60;;;;;;;;;;5072622;28;20189;-73
2022/04/02 02:18:41;;;;;;;0.60;0.60;;;;;;;;;;5071531;28;20197;-73
2022/04/02 02:21:08;;;;;;;0.70;0.70;;;;;;;;;;5072111;28;20239;-73
2022/04/02 02:23:35;;;;;;;0.70;0.70;;;;;;;;;;5066755;28;20230;-73
2022/04/02 02:26:02;;;;;;;0.70;0.65;;;;;;;;;;5068219;28;20279;-73
2022/04/02 02:28:30;;;;;;;0.70;0.70;;;;;;;;;;5071643;28;20197;-73
2022/04/02 02:30:59;;;;;;;0.70;0.70;;;;;;;;;;5054638;28;20537;-73
2022/04/02 02:36:13;;;;;;;0.70;0.70;;;;;;;;;;5071768;28;20261;-74
2022/04/02 02:38:56;;;;;;;0.60;0.60;;;;;;;;;;5057470;28;20287;-73
2022/04/02 02:41:32;;;;;;;0.70;0.60;;;;;;;;;;5058975;28;20613;-73
2022/04/02 02:44:04;;;;;;;0.70;0.60;;;;;;;;;;5051218;28;20196;-75
2022/04/02 02:46:39;;;;;;;0.85;0.85;;;;;;;;;;5035781;28;20213;-74
2022/04/02 02:49:12;;;;;;;0.70;0.70;;;;;;;;;;5051712;28;20243;-74
2022/04/02 02:51:44;;;;;;;0.70;0.70;;;;;;;;;;5049709;28;20219;-75
2022/04/02 02:54:16;;;;;;;0.70;0.70;;;;;;;;;;5070283;28;20192;-74
2022/04/02 02:56:42;;;;;;;0.68;0.63;;;;;;;;;;5073905;28;20185;-74
2022/04/02 02:59:10;;;;;;;0.65;0.60;;;;;;;;;;5059252;28;20219;-74
2022/04/02 03:01:37;;;;;;;0.70;0.70;;;;;;;;;;5062531;28;20201;-74
2022/04/02 03:04:06;;;;;;;0.70;0.60;;;;;;;;;;5058714;28;20616;-75
2022/04/02 03:06:33;;;;;;;0.70;0.70;;;;;;;;;;5054972;28;20592;-74
2022/04/02 03:09:03;;;;;;;0.70;0.70;;;;;;;;;;5055571;28;20190;-75
2022/04/02 03:11:30;;;;;;;0.80;0.80;;;;;;;;;;5064868;28;20212;-74
2022/04/02 03:13:57;;;;;;;0.80;0.80;;;;;;;;;;5074876;28;20189;-75
2022/04/02 03:16:25;;;;;;;0.70;0.70;;;;;;;;;;5074845;28;20730;-74
2022/04/02 03:19:00;;;;;;;0.65;0.60;;;;;;;;;;5074923;28;20181;-75
2022/04/02 03:21:28;;;;;;;0.68;0.60;;;;;;;;;;5069769;28;20224;-75
2022/04/02 03:23:57;;;;;;;0.68;0.68;;;;;;;;;;5055219;28;20276;-75
2022/04/02 03:26:27;;;;;;;0.60;0.60;;;;;;;;;;5054742;28;20243;-75
2022/04/02 03:28:58;;;;;;;0.70;0.70;;;;;;;;;;5055194;28;20591;-76
2022/04/02 03:31:28;;;;;;;0.63;0.60;;;;;;;;;;5063670;28;20193;-75
2022/04/02 03:33:57;;;;;;;0.63;0.60;;;;;;;;;;5061312;28;20654;-75
2022/04/02 03:36:25;;;;;;;0.70;0.70;;;;;;;;;;5054849;28;20267;-75
2022/04/02 03:38:55;;;;;;;0.60;0.60;;;;;;;;;;5056746;28;20231;-75
2022/04/02 03:41:26;;;;;;;0.65;0.63;;;;;;;;;;5052121;28;20662;-75
2022/04/02 03:43:56;;;;;;;0.70;0.70;;;;;;;;;;5040312;28;20223;-75
2022/04/02 03:49:14;;;;;;;0.70;0.70;;;;;;;;;;5074046;28;20189;-75
2022/04/02 03:51:42;;;;;;;0.60;0.60;;;;;;;;;;5074931;28;20568;-75
2022/04/02 03:54:14;;;;;;;0.60;0.60;;;;;;;;;;5066761;28;20200;-75
2022/04/02 03:56:46;;;;;;;0.60;0.60;;;;;;;;;;5055022;28;20225;-75
2022/04/02 03:59:15;;;;;;;0.60;0.60;;;;;;;;;;5074625;28;20284;-75
2022/04/02 04:01:46;;;;;;;0.70;0.68;;;;;;;;;;5057962;28;20193;-75
2022/04/02 04:04:14;;;;;;;0.68;0.68;;;;;;;;;;5045222;28;20203;-76
2022/04/02 04:06:43;;;;;;;0.80;0.80;;;;;;;;;;5060762;28;20221;-75
2022/04/02 04:09:12;;;;;;;0.70;0.70;;;;;;;;;;5037383;28;20666;-75
2022/04/02 04:11:43;;;;;;;0.70;0.70;;;;;;;;;;5054352;28;20232;-75
2022/04/02 04:14:12;;;;;;;0.70;0.70;;;;;;;;;;5056125;28;20685;-75
2022/04/02 04:16:41;;;;;;;0.70;0.68;;;;;;;;;;5054077;28;20554;-75
2022/04/02 04:19:09;;;;;;;0.60;0.60;;;;;;;;;;5037675;28;20224;-75
2022/04/02 04:21:36;;;;;;;0.70;0.60;;;;;;;;;;5053739;28;20594;-75
2022/04/02 04:24:03;;;;;;;0.75;0.75;;;;;;;;;;5054194;28;20189;-75
2022/04/02 04:26:30;;;;;;;0.70;0.70;;;;;;;;;;5054638;28;20244;-75
2022/04/02 04:28:58;;;;;;;0.70;0.60;;;;;;;;;;5064972;28;20202;-74
2022/04/02 04:31:25;;;;;;;0.70;0.70;;;;;;;;;;5037250;28;20204;-75
2022/04/02 04:33:52;;;;;;;0.80;0.80;;;;;;;;;;5058499;28;20281;-74
2022/04/02 04:36:21;;;;;;;0.70;0.70;;;;;;;;;;5057552;28;20267;-74
2022/04/02 04:38:51;;;;;;;0.60;0.60;;;;;;;;;;5053804;28;20596;-74
2022/04/02 04:41:20;;;;;;;0.70;0.68;;;;;;;;;;5053825;28;20231;-74
2022/04/02 04:43:56;;;;;;;0.70;0.70;;;;;;;;;;5056392;28;20612;-73
2022/04/02 04:46:32;;;;;;;0.70;0.70;;;;;;;;;;5073010;28;20196;-74
2022/04/02 04:49:00;;;;;;;0.70;0.70;;;;;;;;;;5057871;28;20597;-72
2022/04/02 04:51:32;;;;;;;0.70;0.60;;;;;;;;;;5053174;28;20678;-74
2022/04/02 04:54:01;;;;;;;0.70;0.70;;;;;;;;;;5056297;28;20301;-74
2022/04/02 04:56:33;;;;;;;0.70;0.70;;;;;;;;;;5073421;28;20721;-74
2022/04/02 04:59:00;;;;;;;0.70;0.70;;;;;;;;;;5052842;28;20228;-75
2022/04/02 05:01:29;;;;;;;0.65;0.63;;;;;;;;;;5055035;28;20212;-74
2022/04/02 05:03:57;;;;;;;0.73;0.73;;;;;;;;;;5057726;28;20198;-76
2022/04/02 05:06:24;;;;;;;0.80;0.80;;;;;;;;;;5073026;28;20224;-75
2022/04/02 05:08:55;;;;;;;0.70;0.60;;;;;;;;;;5053458;28;20296;-75
2022/04/02 05:11:27;;;;;;;0.70;0.68;;;;;;;;;;5053487;28;20199;-74
2022/04/02 05:13:55;;;;;;;0.70;0.70;;;;;;;;;;5052973;28;20201;-74
2022/04/02 05:16:23;;;;;;;0.70;0.70;;;;;;;;;;5052413;28;20251;-75
2022/04/02 05:18:53;;;;;;;0.85;0.85;;;;;;;;;;5063572;28;20673;-75
2022/04/02 05:21:21;;;;;;;0.80;0.80;;;;;;;;;;5072361;28;20707;-75
2022/04/02 05:23:48;;;;;;;0.70;0.70;;;;;;;;;;5068158;28;20625;-76
2022/04/02 05:26:17;;;;;;;0.70;0.70;;;;;;;;;;5073059;28;20242;-74
2022/04/02 05:28:54;;;;;;;0.70;0.70;;;;;;;;;;5052552;28;20713;-75
2022/04/02 05:31:20;;;;;;;0.60;0.60;;;;;;;;;;5052830;28;20201;-75
2022/04/02 05:33:47;;;;;;;0.70;0.70;;;;;;;;;;5058666;28;20225;-76
2022/04/02 05:36:15;;;;;;;0.60;0.60;;;;;;;;;;5042149;28;20247;-75
2022/04/02 05:39:05;;;;;;;0.70;0.70;;;;;;;;;;5075604;28;20179;-76
2022/04/02 05:41:33;;;;;;;0.75;0.75;;;;;;;;;;5054248;28;20328;-75
2022/04/02 05:44:00;;;;;;;0.70;0.70;;;;;;;;;;5042892;28;20283;-75
2022/04/02 05:46:27;;;;;;;0.70;0.70;;;;;;;;;;5065316;28;20202;-76
2022/04/02 05:48:53;;;;;;;0.70;0.60;;;;;;;;;;5053079;28;20658;-75
2022/04/02 05:51:20;;;;;;;0.70;0.70;;;;;;;;;;5053393;28;20248;-76
2022/04/02 05:53:47;;;;;;;0.70;0.68;;;;;;;;;;5059722;28;20190;-76
2022/04/02 05:56:14;;;;;;;0.90;0.90;;;;;;;;;;5066152;28;20196;-75
2022/04/02 05:58:42;;;;;;;0.75;0.75;;;;;;;;;;5070781;28;20180;-75
2022/04/02 06:01:09;;;;;;;0.80;0.80;;;;;;;;;;5061261;28;20212;-75
2022/04/02 06:03:36;;;;;;;0.70;0.70;;;;;;;;;;5068389;28;20285;-75
2022/04/02 06:06:05;;;;;;;0.93;0.93;;;;;;;;;;5053938;28;20209;-75
2022/04/02 06:08:33;;;;;;;0.80;0.80;;;;;;;;;;5052547;28;20267;-75
2022/04/02 06:11:06;;;;;;;0.68;0.60;;;;;;;;;;5074140;28;20596;-75
2022/04/02 06:13:32;;;;;;;0.85;0.85;;;;;;;;;;5087915;28;20192;-75
2022/04/02 06:16:00;;;;;;;0.70;0.70;;;;;;;;;;5064336;28;20204;-75
2022/04/02 06:18:27;;;;;;;0.70;0.60;;;;;;;;;;5052315;28;20547;-76
2022/04/02 06:20:54;;;;;;;0.70;0.70;;;;;;;;;;5064676;28;20220;-76
2022/04/02 06:23:22;;;;;;;0.80;0.80;;;;;;;;;;5070809;28;20215;-76
2022/04/02 06:25:50;;;;;;;0.70;0.60;;;;;;;;;;5063917;28;20197;-76
2022/04/02 06:28:17;;;;;;;0.70;0.70;;;;;;;;;;5052197;28;20334;-76
2022/04/02 06:30:44;;;;;;;0.70;0.70;;;;;;;;;;5060687;28;20228;-76
2022/04/02 06:33:13;;;;;;;0.60;0.60;;;;;;;;;;5066728;28;20201;-75
2022/04/02 06:35:41;;;;;;;0.70;0.70;;;;;;;;;;5035719;28;20594;-75
2022/04/02 06:38:08;;;;;;;0.80;0.80;;;;;;;;;;5053233;28;20719;-76
2022/04/02 06:40:35;;;;;;;0.70;0.70;;;;;;;;;;5053052;28;20207;-75
2022/04/02 06:43:01;;;;;;;0.80;0.80;;;;;;;;;;5075063;28;20246;-76
2022/04/02 06:45:57;;;;;;;0.70;0.70;;;;;;;;;;5053199;28;20664;-76
2022/04/02 06:48:25;;;;;;;0.70;0.70;;;;;;;;;;5054050;28;20612;-75
2022/04/02 06:50:53;;;;;;;0.70;0.68;;;;;;;;;;5053827;28;20248;-76
2022/04/02 06:53:20;;;;;;;0.70;0.70;;;;;;;;;;5069545;28;20594;-75
2022/04/02 06:55:48;;;;;;;0.70;0.70;;;;;;;;;;5071168;28;20657;-75
2022/04/02 06:58:22;;;;;;;0.70;0.70;;;;;;;;;;5072809;28;20603;-76
2022/04/02 07:00:53;;;;;;;0.70;0.68;;;;;;;;;;5071612;28;20179;-75
2022/04/02 07:03:20;;;;;;;0.70;0.70;;;;;;;;;;5058621;28;20716;-76
2022/04/02 07:05:48;;;;;;;0.70;0.60;;;;;;;;;;5052247;28;20190;-76
2022/04/02 07:08:14;;;;;;;0.60;0.60;;;;;;;;;;5052756;28;20678;-75
2022/04/02 07:10:41;;;;;;;0.70;0.70;;;;;;;;;;5051172;28;20194;-76
2022/04/02 07:13:08;;;;;;;0.65;0.60;;;;;;;;;;5051665;28;20789;-76
2022/04/02 07:15:37;;;;;;;0.77;0.77;;;;;;;;;;5068427;28;20200;-75
2022/04/02 07:18:05;;;;;;;0.70;0.70;;;;;;;;;;5071274;28;20227;-75
2022/04/02 07:20:33;;;;;;;0.70;0.70;;;;;;;;;;5071178;28;20206;-75
2022/04/02 07:23:03;;;;;;;0.70;0.70;;;;;;;;;;5069624;28;20703;-75
2022/04/02 07:25:30;;;;;;;0.70;0.65;;;;;;;;;;5067825;28;20541;-75
2022/04/02 07:27:57;;;;;;;0.70;0.70;;;;;;;;;;5070614;28;20244;-74
2022/04/02 07:30:24;;;;;;;0.70;0.70;;;;;;;;;;5061200;28;20658;-74
2022/04/02 07:32:51;;;;;;;0.68;0.60;;;;;;;;;;5051432;28;20580;-74
2022/04/02 07:35:18;;;;;;;0.70;0.70;;;;;;;;;;5066997;28;20272;-74
2022/04/02 07:37:59;;;;;;;0.70;0.70;;;;;;;;;;5068505;28;20240;-74
2022/04/02 07:40:36;;;;;;;0.73;0.73;;;;;;;;;;5036527;28;20284;-74
2022/04/02 07:43:05;;;;;;;0.70;0.70;;;;;;;;;;5052606;28;20169;-74
2022/04/02 07:45:34;;;;;;;0.70;0.70;;;;;;;;;;5070870;28;20263;-75
2022/04/02 07:48:04;;;;;;;0.80;0.80;;;;;;;;;;5074055;28;20688;-74
2022/04/02 07:50:31;;;;;;;2.25;1.25;;;;;;;;;;5056315;28;20645;-75
2022/04/02 07:52:59;;;;;;;1.50;1.40;;;;;;;;;;5057188;28;20195;-74
2022/04/02 07:55:29;;;;;;;0.70;0.60;;;;;;;;;;5061427;28;20208;-73
2022/04/02 07:58:01;;;;;;;1.52;1.20;;;;;;;;;;5067712;28;20185;-73
2022/04/02 08:00:28;;;;;;;0.70;0.70;;;;;;;;;;5074721;28;20219;-74
2022/04/02 08:02:56;;;;;;;0.70;0.70;;;;;;;;;;5066575;28;20215;-75
2022/04/02 08:05:24;;;;;;;0.70;0.70;;;;;;;;;;5068394;28;20204;-74
2022/04/02 08:07:59;;;;;;;0.70;0.60;;;;;;;;;;5054624;28;20280;-72
2022/04/02 08:10:35;;;;;;;0.70;0.68;;;;;;;;;;5038977;28;20196;-73
2022/04/02 08:13:04;;;;;;;0.80;0.80;;;;;;;;;;5054033;28;20190;-74
2022/04/02 08:15:30;;;;;;;0.70;0.70;;;;;;;;;;5070333;28;20209;-74
2022/04/02 08:18:06;;;;;;;0.70;0.60;;;;;;;;;;5058062;28;20184;-75
2022/04/02 08:20:33;;;;;;;0.70;0.63;;;;;;;;;;5057572;28;20204;-76
2022/04/02 08:23:01;;;;;;;0.70;0.70;;;;;;;;;;5074503;28;20183;-76
2022/04/02 08:25:34;;;;;;;0.70;0.60;;;;;;;;;;5055889;28;20204;-76
2022/04/02 08:28:05;;;;;;;0.70;0.60;;;;;;;;;;5054144;28;20197;-76
2022/04/02 08:30:33;;;;;;;0.70;0.70;;;;;;;;;;5053612;28;20607;-76
2022/04/02 08:33:17;;;;;;;0.70;0.70;;;;;;;;;;5058206;28;20181;-78
2022/04/02 08:35:49;;;;;;;1.30;1.20;;;;;;;;;;5053560;28;20251;-77
2022/04/02 08:38:21;;;;;;;1.15;1.05;;;;;;;;;;5053923;28;20189;-79
2022/04/02 08:41:15;;;;;;;0.70;0.60;;;;;;;;;;5055160;28;20646;-79
2022/04/02 08:44:00;;;;;;;0.70;0.70;;;;;;;;;;5044998;28;20208;-80
2022/04/02 08:46:34;;;;;;;0.80;0.80;;;;;;;;;;5036873;28;20185;-79
2022/04/02 08:49:21;;;;;;;1.00;0.90;;;;;;;;;;5059467;28;20212;-77
2022/04/02 08:52:00;;;;;;;0.70;0.70;;;;;;;;;;5074444;28;20751;-78
2022/04/02 08:54:28;;;;;;;0.70;0.70;;;;;;;;;;5073088;28;20193;-77
2022/04/02 08:56:56;;;;;;;0.70;0.70;;;;;;;;;;5046524;28;20201;-76
2022/04/02 08:59:32;;;;;;;1.38;1.27;;;;;;;;;;5037036;28;20177;-76
2022/04/02 09:02:05;;;;;;;0.70;0.60;;;;;;;;;;5067738;28;20638;-75
2022/04/02 09:04:50;;;;;;;0.70;0.70;;;;;;;;;;5057385;28;20190;-74
2022/04/02 09:07:44;;;;;;;0.70;0.70;;;;;;;;;;5054676;28;20582;-75
2022/04/02 09:10:27;;;;;;;0.75;0.75;;;;;;;;;;5072333;28;20278;-74
2022/04/02 09:13:25;;;;;;;0.70;0.60;;;;;;;;;;5058613;28;20181;-73
2022/04/02 09:16:00;;;;;;;0.70;0.68;;;;;;;;;;5072670;28;20223;-76
2022/04/02 09:18:35;;;;;;;0.75;0.73;;;;;;;;;;5074159;28;20169;-76
2022/04/02 09:21:08;;;;;;;0.70;0.65;;;;;;;;;;5073931;28;20747;-77
2022/04/02 09:23:43;;;;;;;0.80;0.80;;;;;;;;;;5072873;28;20274;-77
2022/04/02 09:26:27;;;;;;;0.70;0.60;;;;;;;;;;5064267;28;20296;-77
2022/04/02 09:29:10;;;;;;;0.70;0.70;;;;;;;;;;5059431;28;20266;-76
2022/04/02 09:31:55;;;;;;;0.70;0.70;;;;;;;;;;5071508;28;20669;-76
2022/04/02 09:34:39;;;;;;;0.70;0.70;;;;;;;;;;5060420;28;20638;-74
2022/04/02 09:37:17;;;;;;;0.77;0.70;;;;;;;;;;5074370;28;20238;-76
2022/04/02 09:39:50;;;;;;;0.70;0.70;;;;;;;;;;5066202;28;20199;-75
2022/04/02 09:42:22;;;;;;;1.13;1.02;;;;;;;;;;5055655;28;20239;-75
2022/04/02 09:44:58;;;;;;;0.70;0.65;;;;;;;;;;5056166;28;20193;-75
2022/04/02 09:47:42;;;;;;;0.70;0.60;;;;;;;;;;5054552;28;20169;-76
2022/04/02 09:50:10;;;;;;;0.70;0.70;;;;;;;;;;5065276;28;20243;-76
2022/04/02 09:52:41;;;;;;;0.70;0.70;;;;;;;;;;5064361;28;20225;-74
2022/04/02 09:55:15;;;;;;;0.70;0.60;;;;;;;;;;5065878;28;20177;-76
2022/04/02 09:58:03;;;;;;;0.73;0.70;;;;;;;;;;5076149;28;20185;-77
2022/04/02 10:00:35;;;;;;;0.70;0.70;;;;;;;;;;5059330;28;20193;-76
2022/04/02 10:03:05;;;;;;;0.70;0.60;;;;;;;;;;5056181;28;20204;-78
2022/04/02 10:05:51;;;;;;;0.70;0.70;;;;;;;;;;5054867;28;20197;-78
2022/04/02 10:08:25;;;;;;;0.70;0.60;;;;;;;;;;5055006;28;20238;-79
2022/04/02 10:10:55;;;;;;;0.70;0.60;;;;;;;;;;5056219;28;20211;-78
2022/04/02 10:13:24;;;;;;;0.80;0.70;;;;;;;;;;5056056;28;20268;-77
2022/04/02 10:15:51;;;;;;;0.70;0.60;;;;;;;;;;5056238;28;20613;-78
2022/04/02 10:18:20;;;;;;;0.70;0.70;;;;;;;;;;5072931;28;20189;-77
2022/04/02 10:20:47;;;;;;;0.70;0.70;;;;;;;;;;5074141;28;20220;-77
2022/04/02 10:23:20;;;;;;;0.70;0.60;;;;;;;;;;5071543;28;20466;-77
2022/04/02 10:26:00;;;;;;;0.70;0.60;;;;;;;;;;5072846;28;20408;-78
2022/04/02 10:28:28;;;;;;;0.70;0.63;;;;;;;;;;5073259;28;20454;-75
2022/04/02 10:30:56;;;;;;;0.70;0.60;;;;;;;;;;5060164;28;20537;-79
2022/04/02 10:33:27;;;;;;;0.70;0.60;;;;;;;;;;5053863;28;20505;-78
2022/04/02 10:35:57;;;;;;;0.70;0.60;;;;;;;;;;5054303;28;20524;-77
2022/04/02 10:38:34;;;;;;;0.70;0.60;;;;;;;;;;5055200;28;20747;-78
2022/04/02 10:41:06;;;;;;;0.70;0.60;;;;;;;;;;5053659;28;20505;-75
2022/04/02 10:43:42;;;;;;;0.70;0.60;;;;;;;;;;5058149;28;20940;-76
2022/04/02 10:46:10;;;;;;;0.70;0.60;;;;;;;;;;5073867;28;20435;-77
2022/04/02 10:48:46;;;;;;;0.70;0.60;;;;;;;;;;5081742;28;20441;-76
2022/04/02 10:51:13;;;;;;;0.70;0.60;;;;;;;;;;5077271;28;20473;-77
2022/04/02 10:53:42;;;;;;;0.70;0.60;;;;;;;;;;5084911;28;20438;-77
2022/04/02 10:56:14;;;;;;;0.70;0.67;;;;;;;;;;5099755;28;20429;-79
2022/04/02 10:58:48;;;;;;;0.70;0.70;;;;;;;;;;5067717;28;20528;-77
2022/04/02 11:01:17;;;;;;;0.80;0.70;;;;;;;;;;5057076;28;20453;-77
2022/04/02 11:03:47;;;;;;;0.70;0.60;;;;;;;;;;5082847;28;20439;-78
2022/04/02 11:06:34;;;;;;;0.70;0.70;;;;;;;;;;5072190;28;20869;-76
2022/04/02 11:09:20;;;;;;;0.70;0.60;;;;;;;;;;5095456;28;20526;-75
2022/04/02 11:11:50;;;;;;;0.70;0.60;;;;;;;;;;5082978;28;20867;-76
2022/04/02 11:14:20;;;;;;;0.70;0.60;;;;;;;;;;5075416;28;20832;-76
2022/04/02 11:16:47;;;;;;;0.70;0.60;;;;;;;;;;5069298;28;20470;-76
2022/04/02 11:22:02;;;;;;;0.70;0.60;;;;;;;;;;5059230;28;20542;-78
2022/04/02 11:24:31;;;;;;;0.70;0.60;;;;;;;;;;5070025;28;20996;-79
2022/04/02 11:26:59;;;;;;;0.70;0.60;;;;;;;;;;5056219;28;20430;-79
2022/04/02 11:29:30;;;;;;;0.70;0.60;;;;;;;;;;5055503;28;20459;-78
2022/04/02 11:32:01;;;;;;;0.70;0.60;;;;;;;;;;5051001;28;20478;-78
2022/04/02 11:34:29;;;;;;;0.70;0.70;;;;;;;;;;5058022;28;20683;-77
2022/04/02 11:36:59;;;;;;;0.70;0.60;;;;;;;;;;5069664;28;20464;-79
2022/04/02 11:39:29;;;;;;;0.70;0.60;;;;;;;;;;5054405;28;20458;-79
2022/04/02 11:41:58;;;;;;;0.70;0.60;;;;;;;;;;5060971;28;20523;-78
2022/04/02 11:44:34;;;;;;;0.70;0.60;;;;;;;;;;5063623;28;20448;-78
2022/04/02 11:47:02;;;;;;;0.70;0.60;;;;;;;;;;5061623;28;20955;-77
2022/04/02 11:49:31;;;;;;;0.70;0.70;;;;;;;;;;5063943;28;20559;-75
2022/04/02 11:52:02;;;;;;;0.70;0.70;;;;;;;;;;5074355;28;20471;-79
2022/04/02 11:54:30;;;;;;;0.70;0.60;;;;;;;;;;5057814;28;20505;-78
2022/04/02 11:57:07;;;;;;;0.70;0.60;;;;;;;;;;5057239;28;20496;-81
2022/04/02 11:59:35;;;;;;;0.70;0.60;;;;;;;;;;5070166;28;20451;-78
2022/04/02 12:02:03;;;;;;;0.70;0.60;;;;;;;;;;5054282;28;20448;-76
2022/04/02 12:04:31;;;;;;;0.70;0.60;;;;;;;;;;5056149;28;20443;-77
2022/04/02 12:07:03;;;;;;;0.70;0.60;;;;;;;;;;5054410;28;20532;-76
2022/04/02 12:09:30;;;;;;;0.70;0.60;;;;;;;;;;5054015;28;20475;-77
2022/04/02 12:11:58;;;;;;;0.70;0.60;;;;;;;;;;5057603;28;20465;-78
2022/04/02 12:14:27;;;;;;;0.97;0.80;;;;;;;;;;5063903;28;20532;-75
2022/04/02 12:17:00;;;;;;;0.70;0.60;;;;;;;;;;5072351;28;20558;-77
2022/04/02 12:19:41;;;;;;;0.70;0.70;;;;;;;;;;5068034;28;20448;-77
2022/04/02 12:22:18;;;;;;;0.70;0.60;;;;;;;;;;5059885;28;20497;-78
2022/04/02 12:24:48;;;;;;;0.70;0.60;;;;;;;;;;5070777;28;20465;-77
2022/04/02 12:27:16;;;;;;;0.80;0.80;;;;;;;;;;5041326;28;20968;-78
2022/04/02 12:29:45;;;;;;;0.70;0.60;;;;;;;;;;5036431;28;20241;-77
2022/04/02 12:32:15;;;;;;;0.70;0.60;;;;;;;;;;5065451;28;20295;-78
2022/04/02 12:34:43;;;;;;;0.70;0.70;;;;;;;;;;5063358;28;20448;-77
2022/04/02 12:37:10;;;;;;;0.70;0.60;;;;;;;;;;5055920;28;20495;-76
2022/04/02 12:39:38;;;;;;;0.70;0.60;;;;;;;;;;5074769;28;20688;-77
2022/04/02 12:42:05;;;;;;;0.70;0.60;;;;;;;;;;5060850;28;20193;-77
2022/04/02 12:44:33;;;;;;;0.70;0.60;;;;;;;;;;5069441;28;20455;-77
2022/04/02 12:47:10;;;;;;;0.70;0.60;;;;;;;;;;5073131;28;20938;-76
2022/04/02 12:49:40;;;;;;;0.70;0.60;;;;;;;;;;5071483;28;20489;-76
2022/04/02 12:52:11;;;;;;;1.07;0.97;;;;;;;;;;5061283;28;20468;-77
2022/04/02 12:54:41;;;;;;;0.80;0.70;;;;;;;;;;5054661;28;20493;-78
2022/04/02 12:57:10;;;;;;;0.70;0.60;;;;;;;;;;5053502;28;20800;-75
2022/04/02 12:59:40;;;;;;;0.70;0.60;;;;;;;;;;5036467;28;20463;-76
2022/04/02 13:02:08;;;;;;;0.70;0.70;;;;;;;;;;5063736;28;20802;-75
2022/04/02 13:04:36;;;;;;;0.80;0.80;;;;;;;;;;5071715;28;20918;-79
2022/04/02 13:07:10;;;;;;;0.70;0.60;;;;;;;;;;5068977;28;20863;-78
2022/04/02 13:09:39;;;;;;;0.70;0.60;;;;;;;;;;5073569;28;20454;-78
2022/04/02 13:12:12;;;;;;;0.90;0.90;;;;;;;;;;5074657;28;20424;-77
2022/04/02 13:14:42;;;;;;;0.70;0.60;;;;;;;;;;5070816;28;20211;-76
2022/04/02 13:17:10;;;;;;;0.70;0.70;;;;;;;;;;5059830;28;20240;-77
2022/04/02 13:22:37;;;;;;;0.70;0.60;;;;;;;;;;5069089;28;20250;-79
2022/04/02 13:25:09;;;;;;;0.70;0.60;;;;;;;;;;5072902;28;20546;-76
2022/04/02 13:27:50;;;;;;;0.70;0.70;;;;;;;;;;5072848;28;20456;-76
2022/04/02 13:30:18;;;;;;;0.70;0.70;;;;;;;;;;5063553;28;20506;-77
2022/04/02 13:33:12;;;;;;;0.70;0.60;;;;;;;;;;5052909;28;20701;-76
2022/04/02 13:35:43;;;;;;;0.70;0.60;;;;;;;;;;5072545;28;20479;-75
2022/04/02 13:38:28;;;;;;;0.70;0.60;;;;;;;;;;5068498;28;20295;-77
2022/04/02 13:40:59;;;;;;;0.70;0.60;;;;;;;;;;5050605;28;20231;-77
2022/04/02 13:43:28;;;;;;;0.70;0.70;;;;;;;;;;5053370;28;20625;-77
2022/04/02 13:45:56;;;;;;;0.70;0.60;;;;;;;;;;5068942;28;20215;-76
2022/04/02 13:48:25;;;;;;;0.80;0.73;;;;;;;;;;5055666;28;20228;-76
2022/04/02 13:50:54;;;;;;;1.52;1.42;;;;;;;;;;5072163;28;20225;-77
2022/04/02 13:53:25;;;;;;;0.70;0.60;;;;;;;;;;5072123;28;20707;-78
2022/04/02 13:55:52;;;;;;;0.70;0.60;;;;;;;;;;5073554;28;20180;-77
2022/04/02 13:58:33;;;;;;;0.70;0.70;;;;;;;;;;5059671;28;20192;-77
2022/04/02 14:01:05;;;;;;;0.80;0.73;;;;;;;;;;5073322;28;20185;-78
2022/04/02 14:03:32;;;;;;;0.70;0.70;;;;;;;;;;5072183;28;20204;-77
2022/04/02 14:06:02;;;;;;;0.80;0.70;;;;;;;;;;5071909;28;20661;-77
2022/04/02 14:08:32;;;;;;;0.70;0.70;;;;;;;;;;5071942;28;20295;-77
2022/04/02 14:11:00;;;;;;;0.70;0.70;;;;;;;;;;5070910;28;20274;-77
2022/04/02 14:13:31;;;;;;;0.70;0.70;;;;;;;;;;5072877;28;20195;-77
2022/04/02 14:15:59;;;;;;;0.80;0.80;;;;;;;;;;5063508;28;20236;-76
2022/04/02 14:18:27;;;;;;;0.70;0.70;;;;;;;;;;5066773;28;20192;-77
2022/04/02 14:20:55;;;;;;;0.70;0.70;;;;;;;;;;5072227;28;20212;-76
2022/04/02 14:23:25;;;;;;;0.70;0.70;;;;;;;;;;5072592;28;20242;-77
2022/04/02 14:26:10;;;;;;;0.70;0.70;;;;;;;;;;5055677;28;20223;-77
2022/04/02 14:28:47;;;;;;;0.70;0.60;;;;;;;;;;5052690;28;20217;-77
2022/04/02 14:31:32;;;;;;;0.70;0.60;;;;;;;;;;5037938;28;20216;-78
2022/04/02 14:34:15;;;;;;;0.70;0.70;;;;;;;;;;5052755;28;20216;-77
2022/04/02 14:36:57;;;;;;;0.75;0.70;;;;;;;;;;5051610;28;20267;-77
2022/04/02 14:39:48;;;;;;;0.70;0.60;;;;;;;;;;5019411;28;20251;-77
2022/04/02 14:42:20;;;;;;;0.70;0.60;;;;;;;;;;5035452;28;20263;-78
2022/04/02 14:45:05;;;;;;;0.70;0.70;;;;;;;;;;5052820;28;20185;-76
2022/04/02 14:47:47;;;;;;;0.70;0.70;;;;;;;;;;5051331;28;20688;-77
2022/04/02 14:50:32;;;;;;;0.70;0.60;;;;;;;;;;5034437;28;20220;-78
2022/04/02 14:53:17;;;;;;;0.70;0.60;;;;;;;;;;5054928;28;20192;-76
2022/04/02 14:56:00;;;;;;;0.70;0.60;;;;;;;;;;5056856;28;20605;-77
2022/04/02 14:58:54;;;;;;;0.70;0.60;;;;;;;;;;5055894;28;20248;-80
2022/04/02 15:01:38;;;;;;;0.70;0.60;;;;;;;;;;5022894;28;20205;-79
2022/04/02 15:04:18;;;;;;;0.70;0.70;;;;;;;;;;5074957;28;20197;-83
2022/04/02 15:07:00;;;;;;;0.70;0.70;;;;;;;;;;5071886;28;20262;-78
2022/04/02 15:09:48;;;;;;;0.70;0.60;;;;;;;;;;5048546;28;20197;-79
2022/04/02 15:12:18;;;;;;;0.70;0.70;;;;;;;;;;5045520;28;20205;-78
2022/04/02 15:14:53;;;;;;;0.70;0.70;;;;;;;;;;5055919;28;20173;-78
2022/04/02 15:17:24;;;;;;;0.70;0.60;;;;;;;;;;5056935;28;20703;-80
2022/04/02 15:19:52;;;;;;;0.70;0.60;;;;;;;;;;5055117;28;20189;-77
2022/04/02 15:22:23;;;;;;;0.70;0.70;;;;;;;;;;5058636;28;20217;-79